sensor_id;sensor_type;location;lat;lon;timestamp;temperature;humidity
12870;DHT22;6503;48.572;13.460;2022-12-20T00:00:50;-1.60;99.90
12870;DHT22;6503;48.572;13.460;2022-12-20T00:03:17;-1.60;99.90
12870;DHT22;6503;48.572;13.460;2022-12-20T00:05:45;-1.60;99.90
12870;DHT22;6503;48.572;13.460;2022-12-20T00:08:12;-1.60;99.90
12870;DHT22;6503;48.572;13.460;2022-12-20T00:10:43;-1.60;99.90
12870;DHT22;6503;48.572;13.460;2022-12-20T00:13:11;-1.60;99.90
12870;DHT22;6503;48.572;13.460;2022-12-20T00:15:39;-1.60;99.90
12870;DHT22;6503;48.572;13.460;2022-12-20T00:18:08;-1.60;99.90
12870;DHT22;6503;48.572;13.460;2022-12-20T00:20:35;-1.60;99.90
12870;DHT22;6503;48.572;13.460;2022-12-20T00:23:02;-1.50;99.90
12870;DHT22;6503;48.572;13.460;2022-12-20T00:25:29;-1.50;99.90
12870;DHT22;6503;48.572;13.460;2022-12-20T00:27:58;-1.50;99.90
12870;DHT22;6503;48.572;13.460;2022-12-20T00:30:26;-1.50;99.90
12870;DHT22;6503;48.572;13.460;2022-12-20T00:32:53;-1.50;99.90
12870;DHT22;6503;48.572;13.460;2022-12-20T00:35:20;-1.50;99.90
12870;DHT22;6503;48.572;13.460;2022-12-20T00:37:47;-1.50;99.90
12870;DHT22;6503;48.572;13.460;2022-12-20T00:40:15;-1.50;99.90
12870;DHT22;6503;48.572;13.460;2022-12-20T00:42:42;-1.50;99.90
12870;DHT22;6503;48.572;13.460;2022-12-20T00:45:11;-1.50;99.90
12870;DHT22;6503;48.572;13.460;2022-12-20T00:47:38;-1.50;99.90
12870;DHT22;6503;48.572;13.460;2022-12-20T00:50:06;-1.50;99.90
12870;DHT22;6503;48.572;13.460;2022-12-20T00:52:33;-1.50;99.90
12870;DHT22;6503;48.572;13.460;2022-12-20T00:55:00;-1.50;99.90
12870;DHT22;6503;48.572;13.460;2022-12-20T00:57:29;-1.50;99.90
12870;DHT22;6503;48.572;13.460;2022-12-20T00:59:59;-1.50;99.90
12870;DHT22;6503;48.572;13.460;2022-12-20T01:02:27;-1.50;99.90
12870;DHT22;6503;48.572;13.460;2022-12-20T01:04:55;-1.40;99.90
12870;DHT22;6503;48.572;13.460;2022-12-20T01:07:22;-1.40;99.90
12870;DHT22;6503;48.572;13.460;2022-12-20T01:09:49;-1.50;99.90
12870;DHT22;6503;48.572;13.460;2022-12-20T01:12:16;-1.40;99.90
12870;DHT22;6503;48.572;13.460;2022-12-20T01:14:43;-1.40;99.90
12870;DHT22;6503;48.572;13.460;2022-12-20T01:17:10;-1.50;99.90
12870;DHT22;6503;48.572;13.460;2022-12-20T01:19:39;-1.50;99.90
12870;DHT22;6503;48.572;13.460;2022-12-20T01:22:06;-1.50;99.90
12870;DHT22;6503;48.572;13.460;2022-12-20T01:24:33;-1.50;99.90
12870;DHT22;6503;48.572;13.460;2022-12-20T01:27:00;-1.50;99.90
12870;DHT22;6503;48.572;13.460;2022-12-20T01:29:28;-1.50;99.90
12870;DHT22;6503;48.572;13.460;2022-12-20T01:31:55;-1.50;99.90
12870;DHT22;6503;48.572;13.460;2022-12-20T01:34:23;-1.50;99.90
12870;DHT22;6503;48.572;13.460;2022-12-20T01:36:51;-1.60;99.90
12870;DHT22;6503;48.572;13.460;2022-12-20T01:39:18;-1.50;99.90
12870;DHT22;6503;48.572;13.460;2022-12-20T01:41:46;-1.50;99.90
12870;DHT22;6503;48.572;13.460;2022-12-20T01:44:50;-1.50;99.90
12870;DHT22;6503;48.572;13.460;2022-12-20T01:47:18;-1.50;99.90
12870;DHT22;6503;48.572;13.460;2022-12-20T01:49:48;-1.50;99.90
12870;DHT22;6503;48.572;13.460;2022-12-20T01:52:23;-1.50;99.90
12870;DHT22;6503;48.572;13.460;2022-12-20T01:54:57;-1.50;99.90
12870;DHT22;6503;48.572;13.460;2022-12-20T01:57:31;-1.40;99.90
12870;DHT22;6503;48.572;13.460;2022-12-20T02:00:00;-1.40;99.90
12870;DHT22;6503;48.572;13.460;2022-12-20T02:02:28;-1.40;99.90
12870;DHT22;6503;48.572;13.460;2022-12-20T02:04:56;-1.40;99.90
12870;DHT22;6503;48.572;13.460;2022-12-20T02:07:27;-1.40;99.90
12870;DHT22;6503;48.572;13.460;2022-12-20T02:09:56;-1.50;99.90
12870;DHT22;6503;48.572;13.460;2022-12-20T02:12:25;-1.40;99.90
12870;DHT22;6503;48.572;13.460;2022-12-20T02:15:14;-1.50;99.90
12870;DHT22;6503;48.572;13.460;2022-12-20T02:17:50;-1.60;99.90
12870;DHT22;6503;48.572;13.460;2022-12-20T02:20:47;-1.60;99.90
12870;DHT22;6503;48.572;13.460;2022-12-20T02:23:26;-1.60;99.90
12870;DHT22;6503;48.572;13.460;2022-12-20T02:26:16;-1.50;99.90
12870;DHT22;6503;48.572;13.460;2022-12-20T02:29:01;-1.50;99.90
12870;DHT22;6503;48.572;13.460;2022-12-20T02:31:38;-1.60;99.90
12870;DHT22;6503;48.572;13.460;2022-12-20T02:34:06;-1.60;99.90
12870;DHT22;6503;48.572;13.460;2022-12-20T02:36:35;-1.60;99.90
12870;DHT22;6503;48.572;13.460;2022-12-20T02:39:02;-1.60;99.90
12870;DHT22;6503;48.572;13.460;2022-12-20T02:41:32;-1.60;99.90
12870;DHT22;6503;48.572;13.460;2022-12-20T02:44:05;-1.60;99.90
12870;DHT22;6503;48.572;13.460;2022-12-20T02:46:53;-1.50;99.90
12870;DHT22;6503;48.572;13.460;2022-12-20T02:49:25;-1.50;99.90
12870;DHT22;6503;48.572;13.460;2022-12-20T02:51:55;-1.50;99.90
12870;DHT22;6503;48.572;13.460;2022-12-20T02:54:23;-1.50;99.90
12870;DHT22;6503;48.572;13.460;2022-12-20T02:56:54;-1.50;99.90
12870;DHT22;6503;48.572;13.460;2022-12-20T02:59:26;-1.50;99.90
12870;DHT22;6503;48.572;13.460;2022-12-20T03:01:57;-1.60;99.90
12870;DHT22;6503;48.572;13.460;2022-12-20T03:04:26;-1.60;99.90
12870;DHT22;6503;48.572;13.460;2022-12-20T03:06:58;-1.60;99.90
12870;DHT22;6503;48.572;13.460;2022-12-20T03:09:26;-1.60;99.90
12870;DHT22;6503;48.572;13.460;2022-12-20T03:11:54;-1.60;99.90
12870;DHT22;6503;48.572;13.460;2022-12-20T03:14:21;-1.60;99.90
12870;DHT22;6503;48.572;13.460;2022-12-20T03:16:51;-1.60;99.90
12870;DHT22;6503;48.572;13.460;2022-12-20T03:19:20;-1.70;99.90
12870;DHT22;6503;48.572;13.460;2022-12-20T03:21:49;-1.70;99.90
12870;DHT22;6503;48.572;13.460;2022-12-20T03:24:17;-1.80;99.90
12870;DHT22;6503;48.572;13.460;2022-12-20T03:26:49;-1.70;99.90
12870;DHT22;6503;48.572;13.460;2022-12-20T03:29:17;-1.60;99.90
12870;DHT22;6503;48.572;13.460;2022-12-20T03:31:45;-1.60;99.90
12870;DHT22;6503;48.572;13.460;2022-12-20T03:34:14;-1.60;99.90
12870;DHT22;6503;48.572;13.460;2022-12-20T03:36:46;-1.60;99.90
12870;DHT22;6503;48.572;13.460;2022-12-20T03:39:14;-1.60;99.90
12870;DHT22;6503;48.572;13.460;2022-12-20T03:41:42;-1.60;99.90
12870;DHT22;6503;48.572;13.460;2022-12-20T03:44:09;-1.60;99.90
12870;DHT22;6503;48.572;13.460;2022-12-20T03:46:36;-1.60;99.90
12870;DHT22;6503;48.572;13.460;2022-12-20T03:49:05;-1.60;99.90
12870;DHT22;6503;48.572;13.460;2022-12-20T03:51:32;-1.60;99.90
12870;DHT22;6503;48.572;13.460;2022-12-20T03:54:01;-1.70;99.90
12870;DHT22;6503;48.572;13.460;2022-12-20T03:56:28;-1.70;99.90
12870;DHT22;6503;48.572;13.460;2022-12-20T03:58:55;-1.70;99.90
12870;DHT22;6503;48.572;13.460;2022-12-20T04:01:24;-1.70;99.90
12870;DHT22;6503;48.572;13.460;2022-12-20T04:03:53;-1.80;99.90
12870;DHT22;6503;48.572;13.460;2022-12-20T04:06:24;-1.70;99.90
12870;DHT22;6503;48.572;13.460;2022-12-20T04:08:51;-1.70;99.90
12870;DHT22;6503;48.572;13.460;2022-12-20T04:11:23;-1.70;99.90
12870;DHT22;6503;48.572;13.460;2022-12-20T04:13:52;-1.60;99.90
12870;DHT22;6503;48.572;13.460;2022-12-20T04:16:22;-1.70;99.90
12870;DHT22;6503;48.572;13.460;2022-12-20T04:18:49;-1.70;99.90
12870;DHT22;6503;48.572;13.460;2022-12-20T04:21:21;-1.60;99.90
12870;DHT22;6503;48.572;13.460;2022-12-20T04:23:49;-1.60;99.90
12870;DHT22;6503;48.572;13.460;2022-12-20T04:26:19;-1.60;99.90
12870;DHT22;6503;48.572;13.460;2022-12-20T04:28:49;-1.70;99.90
12870;DHT22;6503;48.572;13.460;2022-12-20T04:31:16;-1.70;99.90
12870;DHT22;6503;48.572;13.460;2022-12-20T04:33:45;-1.70;99.90
12870;DHT22;6503;48.572;13.460;2022-12-20T04:36:13;-1.80;99.90
12870;DHT22;6503;48.572;13.460;2022-12-20T04:38:42;-1.80;99.90
12870;DHT22;6503;48.572;13.460;2022-12-20T04:41:11;-1.80;99.90
12870;DHT22;6503;48.572;13.460;2022-12-20T04:43:49;-1.70;99.90
12870;DHT22;6503;48.572;13.460;2022-12-20T04:46:16;-1.70;99.90
12870;DHT22;6503;48.572;13.460;2022-12-20T04:48:44;-1.60;99.90
12870;DHT22;6503;48.572;13.460;2022-12-20T04:51:12;-1.60;99.90
12870;DHT22;6503;48.572;13.460;2022-12-20T04:53:41;-1.60;99.90
12870;DHT22;6503;48.572;13.460;2022-12-20T04:56:18;-1.60;99.90
12870;DHT22;6503;48.572;13.460;2022-12-20T04:58:47;-1.60;99.90
12870;DHT22;6503;48.572;13.460;2022-12-20T05:01:18;-1.70;99.90
12870;DHT22;6503;48.572;13.460;2022-12-20T05:03:46;-1.70;99.90
12870;DHT22;6503;48.572;13.460;2022-12-20T05:06:15;-1.60;99.90
12870;DHT22;6503;48.572;13.460;2022-12-20T05:08:44;-1.80;99.90
12870;DHT22;6503;48.572;13.460;2022-12-20T05:11:12;-1.80;99.90
12870;DHT22;6503;48.572;13.460;2022-12-20T05:13:40;-1.70;99.90
12870;DHT22;6503;48.572;13.460;2022-12-20T05:16:09;-1.70;99.90
12870;DHT22;6503;48.572;13.460;2022-12-20T05:18:38;-1.70;99.90
12870;DHT22;6503;48.572;13.460;2022-12-20T05:21:07;-1.70;99.90
12870;DHT22;6503;48.572;13.460;2022-12-20T05:23:52;-1.60;99.90
12870;DHT22;6503;48.572;13.460;2022-12-20T05:26:39;-1.60;99.90
12870;DHT22;6503;48.572;13.460;2022-12-20T05:29:09;-1.50;99.90
12870;DHT22;6503;48.572;13.460;2022-12-20T05:31:37;-1.50;99.90
12870;DHT22;6503;48.572;13.460;2022-12-20T05:34:07;-1.50;99.90
12870;DHT22;6503;48.572;13.460;2022-12-20T05:36:34;-1.50;99.90
12870;DHT22;6503;48.572;13.460;2022-12-20T05:39:04;-1.50;99.90
12870;DHT22;6503;48.572;13.460;2022-12-20T05:41:34;-1.50;99.90
12870;DHT22;6503;48.572;13.460;2022-12-20T05:44:05;-1.50;99.90
12870;DHT22;6503;48.572;13.460;2022-12-20T05:46:32;-1.40;99.90
12870;DHT22;6503;48.572;13.460;2022-12-20T05:49:00;-1.40;99.90
12870;DHT22;6503;48.572;13.460;2022-12-20T05:51:31;-1.40;99.90
12870;DHT22;6503;48.572;13.460;2022-12-20T05:54:01;-1.30;99.90
12870;DHT22;6503;48.572;13.460;2022-12-20T05:56:28;-1.30;99.90
12870;DHT22;6503;48.572;13.460;2022-12-20T05:58:57;-1.30;99.90
12870;DHT22;6503;48.572;13.460;2022-12-20T06:01:24;-1.30;99.90
12870;DHT22;6503;48.572;13.460;2022-12-20T06:03:52;-1.30;99.90
12870;DHT22;6503;48.572;13.460;2022-12-20T06:06:19;-1.40;99.90
12870;DHT22;6503;48.572;13.460;2022-12-20T06:08:57;-1.30;99.90
12870;DHT22;6503;48.572;13.460;2022-12-20T06:11:25;-1.40;99.90
12870;DHT22;6503;48.572;13.460;2022-12-20T06:13:52;-1.30;99.90
12870;DHT22;6503;48.572;13.460;2022-12-20T06:16:20;-1.30;99.90
12870;DHT22;6503;48.572;13.460;2022-12-20T06:18:49;-1.30;99.90
12870;DHT22;6503;48.572;13.460;2022-12-20T06:21:20;-1.30;99.90
12870;DHT22;6503;48.572;13.460;2022-12-20T06:23:55;-1.30;99.90
12870;DHT22;6503;48.572;13.460;2022-12-20T06:26:27;-1.40;99.90
12870;DHT22;6503;48.572;13.460;2022-12-20T06:29:01;-1.50;99.90
12870;DHT22;6503;48.572;13.460;2022-12-20T06:31:30;-1.40;99.90
12870;DHT22;6503;48.572;13.460;2022-12-20T06:34:04;-1.50;99.90
12870;DHT22;6503;48.572;13.460;2022-12-20T06:36:32;-1.50;99.90
12870;DHT22;6503;48.572;13.460;2022-12-20T06:39:03;-1.50;99.90
12870;DHT22;6503;48.572;13.460;2022-12-20T06:41:31;-1.50;99.90
12870;DHT22;6503;48.572;13.460;2022-12-20T06:44:00;-1.50;99.90
12870;DHT22;6503;48.572;13.460;2022-12-20T06:46:32;-1.60;99.90
12870;DHT22;6503;48.572;13.460;2022-12-20T06:49:01;-1.60;99.90
12870;DHT22;6503;48.572;13.460;2022-12-20T07:04:59;-1.60;99.90
12870;DHT22;6503;48.572;13.460;2022-12-20T07:08:00;-1.60;99.90
12870;DHT22;6503;48.572;13.460;2022-12-20T07:10:41;-1.60;99.90
12870;DHT22;6503;48.572;13.460;2022-12-20T07:13:36;-1.70;99.90
12870;DHT22;6503;48.572;13.460;2022-12-20T07:16:07;-1.60;99.90
12870;DHT22;6503;48.572;13.460;2022-12-20T07:18:35;-1.70;99.90
12870;DHT22;6503;48.572;13.460;2022-12-20T07:21:06;-1.70;99.90
12870;DHT22;6503;48.572;13.460;2022-12-20T07:23:35;-1.70;99.90
12870;DHT22;6503;48.572;13.460;2022-12-20T07:26:03;-1.70;99.90
12870;DHT22;6503;48.572;13.460;2022-12-20T07:31:53;-1.70;99.90
12870;DHT22;6503;48.572;13.460;2022-12-20T07:34:21;-1.60;99.90
12870;DHT22;6503;48.572;13.460;2022-12-20T07:36:50;-1.50;99.90
12870;DHT22;6503;48.572;13.460;2022-12-20T07:39:18;-1.40;99.90
12870;DHT22;6503;48.572;13.460;2022-12-20T07:41:45;-1.40;99.90
12870;DHT22;6503;48.572;13.460;2022-12-20T07:44:12;-1.30;99.90
12870;DHT22;6503;48.572;13.460;2022-12-20T07:46:40;-1.30;99.90
12870;DHT22;6503;48.572;13.460;2022-12-20T07:49:08;-1.30;99.90
12870;DHT22;6503;48.572;13.460;2022-12-20T07:51:40;-1.20;99.90
12870;DHT22;6503;48.572;13.460;2022-12-20T07:54:30;-1.20;99.90
12870;DHT22;6503;48.572;13.460;2022-12-20T07:57:04;-1.00;99.90
12870;DHT22;6503;48.572;13.460;2022-12-20T07:59:36;-1.10;99.90
12870;DHT22;6503;48.572;13.460;2022-12-20T08:02:26;-1.00;99.90
12870;DHT22;6503;48.572;13.460;2022-12-20T08:05:25;-0.90;99.90
12870;DHT22;6503;48.572;13.460;2022-12-20T08:11:42;-0.80;99.90
12870;DHT22;6503;48.572;13.460;2022-12-20T08:14:19;-0.80;99.90
12870;DHT22;6503;48.572;13.460;2022-12-20T08:17:07;-0.70;99.90
12870;DHT22;6503;48.572;13.460;2022-12-20T08:20:11;-0.70;99.90
12870;DHT22;6503;48.572;13.460;2022-12-20T08:23:02;-0.70;99.90
12870;DHT22;6503;48.572;13.460;2022-12-20T08:26:12;-0.70;99.90
12870;DHT22;6503;48.572;13.460;2022-12-20T08:32:15;-0.70;99.90
12870;DHT22;6503;48.572;13.460;2022-12-20T08:34:48;-0.60;99.90
12870;DHT22;6503;48.572;13.460;2022-12-20T08:37:25;-0.60;99.90
12870;DHT22;6503;48.572;13.460;2022-12-20T08:40:18;-0.60;99.90
12870;DHT22;6503;48.572;13.460;2022-12-20T08:43:10;-0.60;99.90
12870;DHT22;6503;48.572;13.460;2022-12-20T08:45:42;-0.50;99.90
12870;DHT22;6503;48.572;13.460;2022-12-20T08:48:55;-0.50;99.90
12870;DHT22;6503;48.572;13.460;2022-12-20T08:51:42;-0.40;99.90
12870;DHT22;6503;48.572;13.460;2022-12-20T08:54:42;-0.30;99.90
12870;DHT22;6503;48.572;13.460;2022-12-20T08:57:15;-0.20;99.90
12870;DHT22;6503;48.572;13.460;2022-12-20T09:01:04;-0.10;99.90
12870;DHT22;6503;48.572;13.460;2022-12-20T09:07:07;-0.10;99.90
12870;DHT22;6503;48.572;13.460;2022-12-20T09:09:38;-0.20;99.90
12870;DHT22;6503;48.572;13.460;2022-12-20T09:12:05;-0.30;99.90
12870;DHT22;6503;48.572;13.460;2022-12-20T09:14:40;-0.10;99.90
12870;DHT22;6503;48.572;13.460;2022-12-20T09:17:22;-0.10;99.90
12870;DHT22;6503;48.572;13.460;2022-12-20T09:20:13;0.00;99.90
12870;DHT22;6503;48.572;13.460;2022-12-20T09:23:01;0.10;99.90
12870;DHT22;6503;48.572;13.460;2022-12-20T09:49:42;0.20;99.90
12870;DHT22;6503;48.572;13.460;2022-12-20T09:52:44;0.30;99.90
12870;DHT22;6503;48.572;13.460;2022-12-20T09:55:30;0.40;99.90
12870;DHT22;6503;48.572;13.460;2022-12-20T09:58:27;0.40;99.90
12870;DHT22;6503;48.572;13.460;2022-12-20T10:01:14;0.50;99.90
12870;DHT22;6503;48.572;13.460;2022-12-20T10:03:46;0.60;99.90
12870;DHT22;6503;48.572;13.460;2022-12-20T10:10:34;0.70;99.90
12870;DHT22;6503;48.572;13.460;2022-12-20T10:13:12;0.80;99.90
12870;DHT22;6503;48.572;13.460;2022-12-20T10:15:51;0.90;99.90
12870;DHT22;6503;48.572;13.460;2022-12-20T10:18:31;0.90;99.90
12870;DHT22;6503;48.572;13.460;2022-12-20T10:22:04;0.90;99.90
12870;DHT22;6503;48.572;13.460;2022-12-20T10:25:06;1.10;99.90
12870;DHT22;6503;48.572;13.460;2022-12-20T10:28:16;1.20;99.90
12870;DHT22;6503;48.572;13.460;2022-12-20T10:31:16;1.20;99.90
12870;DHT22;6503;48.572;13.460;2022-12-20T10:33:58;1.20;99.90
12870;DHT22;6503;48.572;13.460;2022-12-20T10:36:29;1.20;99.90
12870;DHT22;6503;48.572;13.460;2022-12-20T11:16:49;1.50;99.90
12870;DHT22;6503;48.572;13.460;2022-12-20T11:19:53;1.60;99.90
12870;DHT22;6503;48.572;13.460;2022-12-20T11:22:32;1.70;99.90
12870;DHT22;6503;48.572;13.460;2022-12-20T11:25:16;1.70;99.90
12870;DHT22;6503;48.572;13.460;2022-12-20T11:27:57;1.70;99.90
12870;DHT22;6503;48.572;13.460;2022-12-20T11:30:36;1.70;99.90
12870;DHT22;6503;48.572;13.460;2022-12-20T11:33:30;1.80;99.90
12870;DHT22;6503;48.572;13.460;2022-12-20T11:36:02;1.70;99.90
12870;DHT22;6503;48.572;13.460;2022-12-20T11:38:45;1.70;99.90
12870;DHT22;6503;48.572;13.460;2022-12-20T11:41:35;1.60;99.90
12870;DHT22;6503;48.572;13.460;2022-12-20T11:44:29;1.60;99.90
12870;DHT22;6503;48.572;13.460;2022-12-20T11:47:15;1.60;99.90
12870;DHT22;6503;48.572;13.460;2022-12-20T11:53:15;1.60;99.90
12870;DHT22;6503;48.572;13.460;2022-12-20T11:56:11;1.70;99.90
12870;DHT22;6503;48.572;13.460;2022-12-20T11:59:14;1.70;99.90
12870;DHT22;6503;48.572;13.460;2022-12-20T12:01:56;1.70;99.90
12870;DHT22;6503;48.572;13.460;2022-12-20T12:04:43;1.70;99.90
12870;DHT22;6503;48.572;13.460;2022-12-20T12:07:17;1.80;99.90
12870;DHT22;6503;48.572;13.460;2022-12-20T12:13:11;1.80;99.90
12870;DHT22;6503;48.572;13.460;2022-12-20T12:20:13;1.80;99.90
12870;DHT22;6503;48.572;13.460;2022-12-20T12:22:42;1.70;99.90
12870;DHT22;6503;48.572;13.460;2022-12-20T12:25:37;1.60;99.90
12870;DHT22;6503;48.572;13.460;2022-12-20T12:28:22;1.60;99.90
12870;DHT22;6503;48.572;13.460;2022-12-20T12:31:17;1.60;99.90
12870;DHT22;6503;48.572;13.460;2022-12-20T12:33:52;1.60;99.90
12870;DHT22;6503;48.572;13.460;2022-12-20T12:39:33;1.70;99.90
12870;DHT22;6503;48.572;13.460;2022-12-20T12:42:44;1.70;99.90
12870;DHT22;6503;48.572;13.460;2022-12-20T12:45:22;1.70;99.90
12870;DHT22;6503;48.572;13.460;2022-12-20T12:47:55;1.70;99.90
12870;DHT22;6503;48.572;13.460;2022-12-20T12:50:27;1.60;99.90
12870;DHT22;6503;48.572;13.460;2022-12-20T12:52:56;1.60;99.90
12870;DHT22;6503;48.572;13.460;2022-12-20T12:55:42;1.70;99.90
12870;DHT22;6503;48.572;13.460;2022-12-20T12:58:29;1.70;99.90
12870;DHT22;6503;48.572;13.460;2022-12-20T13:01:00;1.80;99.90
12870;DHT22;6503;48.572;13.460;2022-12-20T13:06:55;1.80;99.90
12870;DHT22;6503;48.572;13.460;2022-12-20T13:09:38;1.90;99.90
12870;DHT22;6503;48.572;13.460;2022-12-20T13:15:51;2.00;99.90
12870;DHT22;6503;48.572;13.460;2022-12-20T13:18:25;2.00;99.90
12870;DHT22;6503;48.572;13.460;2022-12-20T13:26:57;2.10;99.90
12870;DHT22;6503;48.572;13.460;2022-12-20T13:29:27;2.20;99.90
12870;DHT22;6503;48.572;13.460;2022-12-20T13:31:58;2.10;99.90
12870;DHT22;6503;48.572;13.460;2022-12-20T13:34:38;2.00;99.90
12870;DHT22;6503;48.572;13.460;2022-12-20T13:37:27;2.00;99.90
12870;DHT22;6503;48.572;13.460;2022-12-20T13:39:55;1.90;99.90
12870;DHT22;6503;48.572;13.460;2022-12-20T13:42:36;1.90;99.90
12870;DHT22;6503;48.572;13.460;2022-12-20T13:45:10;1.80;99.90
12870;DHT22;6503;48.572;13.460;2022-12-20T13:47:46;1.90;99.90
12870;DHT22;6503;48.572;13.460;2022-12-20T13:50:25;1.90;99.90
12870;DHT22;6503;48.572;13.460;2022-12-20T13:52:58;1.80;99.90
12870;DHT22;6503;48.572;13.460;2022-12-20T13:55:33;1.70;99.90
12870;DHT22;6503;48.572;13.460;2022-12-20T13:58:04;1.60;99.90
12870;DHT22;6503;48.572;13.460;2022-12-20T14:00:34;1.50;99.90
12870;DHT22;6503;48.572;13.460;2022-12-20T14:03:02;1.50;99.90
12870;DHT22;6503;48.572;13.460;2022-12-20T14:05:37;1.40;99.90
12870;DHT22;6503;48.572;13.460;2022-12-20T14:08:19;1.30;99.90
12870;DHT22;6503;48.572;13.460;2022-12-20T14:11:08;1.30;99.90
12870;DHT22;6503;48.572;13.460;2022-12-20T14:13:54;1.30;99.90
12870;DHT22;6503;48.572;13.460;2022-12-20T14:16:33;1.20;99.90
12870;DHT22;6503;48.572;13.460;2022-12-20T14:19:12;1.10;99.90
12870;DHT22;6503;48.572;13.460;2022-12-20T14:21:51;1.10;99.90
12870;DHT22;6503;48.572;13.460;2022-12-20T14:24:27;0.90;99.90
12870;DHT22;6503;48.572;13.460;2022-12-20T14:26:55;0.90;99.90
12870;DHT22;6503;48.572;13.460;2022-12-20T14:32:54;0.80;99.90
12870;DHT22;6503;48.572;13.460;2022-12-20T14:35:52;0.80;99.90
12870;DHT22;6503;48.572;13.460;2022-12-20T14:39:52;0.80;99.90
12870;DHT22;6503;48.572;13.460;2022-12-20T14:42:28;0.80;99.90
12870;DHT22;6503;48.572;13.460;2022-12-20T14:45:03;0.80;99.90
12870;DHT22;6503;48.572;13.460;2022-12-20T14:47:31;0.70;99.90
12870;DHT22;6503;48.572;13.460;2022-12-20T14:50:00;0.70;99.90
12870;DHT22;6503;48.572;13.460;2022-12-20T14:52:32;0.60;99.90
12870;DHT22;6503;48.572;13.460;2022-12-20T14:55:10;0.60;99.90
12870;DHT22;6503;48.572;13.460;2022-12-20T14:57:52;0.70;99.90
12870;DHT22;6503;48.572;13.460;2022-12-20T15:00:25;0.60;99.90
12870;DHT22;6503;48.572;13.460;2022-12-20T15:03:16;0.60;99.90
12870;DHT22;6503;48.572;13.460;2022-12-20T15:05:56;0.50;99.90
12870;DHT22;6503;48.572;13.460;2022-12-20T15:08:27;0.50;99.90
12870;DHT22;6503;48.572;13.460;2022-12-20T15:11:15;0.40;99.90
12870;DHT22;6503;48.572;13.460;2022-12-20T15:13:56;0.50;99.90
12870;DHT22;6503;48.572;13.460;2022-12-20T15:16:28;0.40;99.90
12870;DHT22;6503;48.572;13.460;2022-12-20T15:18:57;0.40;99.90
12870;DHT22;6503;48.572;13.460;2022-12-20T15:21:42;0.40;99.90
12870;DHT22;6503;48.572;13.460;2022-12-20T15:24:46;0.30;99.90
12870;DHT22;6503;48.572;13.460;2022-12-20T15:27:46;0.30;99.90
12870;DHT22;6503;48.572;13.460;2022-12-20T15:34:28;0.30;99.90
12870;DHT22;6503;48.572;13.460;2022-12-20T15:41:01;0.20;99.90
12870;DHT22;6503;48.572;13.460;2022-12-20T15:50:22;0.30;99.90
12870;DHT22;6503;48.572;13.460;2022-12-20T15:53:08;0.30;99.90
12870;DHT22;6503;48.572;13.460;2022-12-20T16:02:44;0.40;99.90
12870;DHT22;6503;48.572;13.460;2022-12-20T16:05:42;0.40;99.90
12870;DHT22;6503;48.572;13.460;2022-12-20T16:08:26;0.40;99.90
12870;DHT22;6503;48.572;13.460;2022-12-20T16:10:58;0.40;99.90
12870;DHT22;6503;48.572;13.460;2022-12-20T16:13:46;0.40;99.90
12870;DHT22;6503;48.572;13.460;2022-12-20T16:16:46;0.50;99.90
12870;DHT22;6503;48.572;13.460;2022-12-20T16:19:17;0.50;99.90
12870;DHT22;6503;48.572;13.460;2022-12-20T16:22:04;0.40;99.90
12870;DHT22;6503;48.572;13.460;2022-12-20T16:25:12;0.50;99.90
12870;DHT22;6503;48.572;13.460;2022-12-20T16:31:10;0.50;99.90
12870;DHT22;6503;48.572;13.460;2022-12-20T16:37:10;0.40;99.90
12870;DHT22;6503;48.572;13.460;2022-12-20T16:39:48;0.40;99.90
12870;DHT22;6503;48.572;13.460;2022-12-20T16:42:23;0.40;99.90
12870;DHT22;6503;48.572;13.460;2022-12-20T16:44:53;0.40;99.90
12870;DHT22;6503;48.572;13.460;2022-12-20T16:47:28;0.40;99.90
12870;DHT22;6503;48.572;13.460;2022-12-20T16:49:59;0.50;99.90
12870;DHT22;6503;48.572;13.460;2022-12-20T17:00:14;0.50;99.90
12870;DHT22;6503;48.572;13.460;2022-12-20T17:03:06;0.50;99.90
12870;DHT22;6503;48.572;13.460;2022-12-20T17:06:07;0.50;99.90
12870;DHT22;6503;48.572;13.460;2022-12-20T17:08:57;0.50;99.90
12870;DHT22;6503;48.572;13.460;2022-12-20T17:11:43;0.50;99.90
12870;DHT22;6503;48.572;13.460;2022-12-20T17:14:20;0.50;99.90
12870;DHT22;6503;48.572;13.460;2022-12-20T17:17:20;0.50;99.90
12870;DHT22;6503;48.572;13.460;2022-12-20T17:20:08;0.50;99.90
12870;DHT22;6503;48.572;13.460;2022-12-20T17:22:50;0.40;99.90
12870;DHT22;6503;48.572;13.460;2022-12-20T17:26:06;0.50;99.90
12870;DHT22;6503;48.572;13.460;2022-12-20T17:28:32;0.50;99.90
12870;DHT22;6503;48.572;13.460;2022-12-20T17:31:46;0.40;99.90
12870;DHT22;6503;48.572;13.460;2022-12-20T17:34:40;0.50;99.90
12870;DHT22;6503;48.572;13.460;2022-12-20T17:37:46;0.50;99.90
12870;DHT22;6503;48.572;13.460;2022-12-20T17:40:55;0.50;99.90
12870;DHT22;6503;48.572;13.460;2022-12-20T17:43:26;0.50;99.90
12870;DHT22;6503;48.572;13.460;2022-12-20T17:45:53;0.50;99.90
12870;DHT22;6503;48.572;13.460;2022-12-20T17:48:35;0.50;99.90
12870;DHT22;6503;48.572;13.460;2022-12-20T17:57:43;0.40;99.90
12870;DHT22;6503;48.572;13.460;2022-12-20T18:00:26;0.40;99.90
12870;DHT22;6503;48.572;13.460;2022-12-20T18:02:59;0.40;99.90
12870;DHT22;6503;48.572;13.460;2022-12-20T18:05:43;0.50;99.90
12870;DHT22;6503;48.572;13.460;2022-12-20T18:11:13;0.50;99.90
12870;DHT22;6503;48.572;13.460;2022-12-20T18:13:44;0.50;99.90
12870;DHT22;6503;48.572;13.460;2022-12-20T18:16:23;0.50;99.90
12870;DHT22;6503;48.572;13.460;2022-12-20T18:19:36;0.60;99.90
12870;DHT22;6503;48.572;13.460;2022-12-20T18:22:26;0.60;99.90
12870;DHT22;6503;48.572;13.460;2022-12-20T18:24:57;0.50;99.90
12870;DHT22;6503;48.572;13.460;2022-12-20T18:27:24;0.60;99.90
12870;DHT22;6503;48.572;13.460;2022-12-20T18:29:54;0.60;99.90
12870;DHT22;6503;48.572;13.460;2022-12-20T18:32:23;0.60;99.90
12870;DHT22;6503;48.572;13.460;2022-12-20T18:35:17;0.60;99.90
12870;DHT22;6503;48.572;13.460;2022-12-20T18:38:00;0.50;99.90
12870;DHT22;6503;48.572;13.460;2022-12-20T18:40:46;0.50;99.90
12870;DHT22;6503;48.572;13.460;2022-12-20T18:43:14;0.50;99.90
12870;DHT22;6503;48.572;13.460;2022-12-20T18:46:13;0.50;99.90
12870;DHT22;6503;48.572;13.460;2022-12-20T18:48:59;0.50;99.90
12870;DHT22;6503;48.572;13.460;2022-12-20T18:51:40;0.40;99.90
12870;DHT22;6503;48.572;13.460;2022-12-20T18:54:23;0.40;99.90
12870;DHT22;6503;48.572;13.460;2022-12-20T18:57:20;0.40;99.90
12870;DHT22;6503;48.572;13.460;2022-12-20T18:59:58;0.40;99.90
12870;DHT22;6503;48.572;13.460;2022-12-20T19:05:45;0.40;99.90
12870;DHT22;6503;48.572;13.460;2022-12-20T19:08:20;0.40;99.90
12870;DHT22;6503;48.572;13.460;2022-12-20T19:11:05;0.40;99.90
12870;DHT22;6503;48.572;13.460;2022-12-20T19:13:57;0.40;99.90
12870;DHT22;6503;48.572;13.460;2022-12-20T19:19:39;0.40;99.90
12870;DHT22;6503;48.572;13.460;2022-12-20T19:25:18;0.30;99.90
12870;DHT22;6503;48.572;13.460;2022-12-20T19:27:57;0.30;99.90
12870;DHT22;6503;48.572;13.460;2022-12-20T19:30:26;0.30;99.90
12870;DHT22;6503;48.572;13.460;2022-12-20T19:33:11;0.20;99.90
12870;DHT22;6503;48.572;13.460;2022-12-20T19:35:43;0.20;99.90
12870;DHT22;6503;48.572;13.460;2022-12-20T19:38:18;0.20;99.90